Time;durP1;ratioP1;P1;durP2;ratioP2;P2;SDS_P1;SDS_P2;PMS_P1;PMS_P2;Temp;Humidity;BMP_temperature;BMP_pressure;BME280_temperature;BME280_humidity;BME280_pressure;Samples;Min_cycle;Max_cycle;Signal;HPM_P1;HPM_P2
2021/12/16 00:31:18;;;;;;;;;;;;;;;7.14;100.00;101230.66;1741903;82;20154;-82
2021/12/16 00:33:35;;;;;;;;;;;;;;;7.18;100.00;101220.80;1727458;82;20122;-81
2021/12/16 00:36:00;;;;;;;;;;;;;;;7.19;100.00;101215.44;1733521;80;20139;-81
2021/12/16 00:38:26;;;;;;;;;;;;;;;7.23;100.00;101206.03;1708298;82;20519;-81
2021/12/16 00:40:52;;;;;;;;;;;;;;;7.18;100.00;101211.12;1738164;82;20206;-82
2021/12/16 00:48:37;;;;;;;;;;;;;;;7.10;100.00;101212.14;1736204;82;20147;-82
2021/12/16 00:56:14;;;;;;;;;;;;;;;7.22;100.00;101204.34;1735914;82;20126;-81
2021/12/16 00:58:53;;;;;;;;;;;;;;;7.37;100.00;101209.34;1741836;82;20261;-81
2021/12/16 01:01:30;;;;;;;;;;;;;;;7.19;100.00;101211.50;1736164;81;20114;-80
2021/12/16 01:33:57;;;;;;;;;;;;;;;7.30;100.00;101179.67;1738330;81;20195;-81
2021/12/16 01:41:49;;;;;;;;;;;;;;;7.40;100.00;101173.30;1738153;82;20134;-82
2021/12/16 01:51:31;;;;;;;;;;;;;;;7.43;100.00;101163.40;1740829;81;20126;-82
2021/12/16 01:57:03;;;;;;;;;;;;;;;7.46;100.00;101155.30;1739449;81;20128;-81
2021/12/16 01:59:24;;;;;;;;;;;;;;;7.40;100.00;101168.87;1739079;82;20777;-82
2021/12/16 02:01:53;;;;;;;;;;;;;;;7.30;100.00;101157.34;1733255;81;20287;-80
2021/12/16 02:04:39;;;;;;;;;;;;;;;7.34;100.00;101157.48;1740971;81;20127;-82
2021/12/16 02:09:33;;;;;;;;;;;;;;;7.37;100.00;101161.21;1736820;82;20111;-81
2021/12/16 02:12:00;;;;;;;;;;;;;;;7.34;100.00;101168.00;1739271;81;20526;-81
2021/12/16 02:31:15;;;;;;;;;;;;;;;7.43;100.00;101171.28;1712701;82;20565;-81
2021/12/16 02:35:48;;;;;;;;;;;;;;;7.25;100.00;101166.03;1741290;82;20595;-81
2021/12/16 02:38:17;;;;;;;;;;;;;;;7.31;100.00;101170.36;1738856;82;20181;-81
2021/12/16 02:40:43;;;;;;;;;;;;;;;7.32;100.00;101177.31;1743168;82;20164;-82
2021/12/16 02:43:28;;;;;;;;;;;;;;;7.38;100.00;101178.67;1741068;81;20256;-80
2021/12/16 02:48:36;;;;;;;;;;;;;;;7.41;100.00;101165.31;1741186;82;20102;-81
2021/12/16 02:51:20;;;;;;;;;;;;;;;7.39;100.00;101198.72;1744012;82;20605;-80
2021/12/16 02:53:54;;;;;;;;;;;;;;;7.38;100.00;101173.41;1749258;82;20159;-81
2021/12/16 02:56:20;;;;;;;;;;;;;;;7.45;100.00;101171.17;1747665;81;20209;-81
2021/12/16 02:58:48;;;;;;;;;;;;;;;7.44;100.00;101176.91;1742631;81;21230;-81
2021/12/16 03:01:19;;;;;;;;;;;;;;;7.46;100.00;101173.69;1743495;81;20137;-81
2021/12/16 03:03:47;;;;;;;;;;;;;;;7.46;100.00;101176.31;1739956;81;20222;-81
2021/12/16 03:06:12;;;;;;;;;;;;;;;7.48;100.00;101177.52;1744612;81;20122;-81
2021/12/16 03:08:40;;;;;;;;;;;;;;;7.43;100.00;101181.80;1744340;81;20122;-81
2021/12/16 03:14:18;;;;;;;;;;;;;;;7.44;100.00;101176.91;1746155;81;20164;-82
2021/12/16 03:16:40;;;;;;;;;;;;;;;7.42;100.00;101170.91;1749401;82;20137;-82
2021/12/16 03:19:13;;;;;;;;;;;;;;;7.47;100.00;101168.81;1737027;81;20138;-82
2021/12/16 03:21:39;;;;;;;;;;;;;;;7.43;100.00;101181.80;1728071;82;20163;-81
2021/12/16 03:29:58;;;;;;;;;;;;;;;7.44;100.00;101174.28;1735535;82;20127;-81
2021/12/16 03:35:14;;;;;;;;;;;;;;;7.52;100.00;101166.67;1728386;82;20180;-81
2021/12/16 03:37:31;;;;;;;;;;;;;;;7.40;100.00;101168.87;1732219;82;20148;-80
2021/12/16 03:40:00;;;;;;;;;;;;;;;7.44;100.00;101170.34;1730782;82;20237;-82
2021/12/16 03:42:29;;;;;;;;;;;;;;;7.40;100.00;101164.93;1726140;81;20198;-82
2021/12/16 03:45:05;;;;;;;;;;;;;;;7.36;100.00;101173.52;1729290;82;20525;-82
2021/12/16 03:47:33;;;;;;;;;;;;;;;7.47;100.00;101170.13;1728169;82;20126;-81
2021/12/16 03:50:01;;;;;;;;;;;;;;;7.40;100.00;101164.93;1737105;82;21142;-82
2021/12/16 03:52:27;;;;;;;;;;;;;;;7.38;100.00;101173.41;1713772;82;20166;-82
2021/12/16 03:54:53;;;;;;;;;;;;;;;7.41;100.00;101167.94;1729969;82;20447;-81
2021/12/16 03:57:23;;;;;;;;;;;;;;;7.41;100.00;101167.94;1729830;81;20211;-82
2021/12/16 03:59:49;;;;;;;;;;;;;;;7.37;100.00;101165.16;1711518;82;20180;-82
2021/12/16 04:02:21;;;;;;;;;;;;;;;7.47;100.00;101156.98;1729283;82;21038;-82
2021/12/16 04:04:47;;;;;;;;;;;;;;;7.37;100.00;101166.47;1733298;81;20131;-83
2021/12/16 04:07:14;;;;;;;;;;;;;;;7.39;100.00;101154.05;1678586;82;20242;-84
2021/12/16 04:09:40;;;;;;;;;;;;;;;7.42;100.00;101157.77;1728677;82;20112;-83
2021/12/16 04:12:11;;;;;;;;;;;;;;;7.45;100.00;101161.48;1708022;82;20116;-84
2021/12/16 04:14:41;;;;;;;;;;;;;;;7.39;100.00;101169.81;1732065;82;20123;-83
2021/12/16 04:17:09;;;;;;;;;;;;;;;7.45;100.00;101158.86;1730525;81;20236;-83
2021/12/16 04:19:35;;;;;;;;;;;;;;;7.46;100.00;101153.98;1727522;81;20165;-84
2021/12/16 04:22:10;;;;;;;;;;;;;;;7.43;100.00;101151.57;1729523;82;20347;-83
2021/12/16 04:24:36;;;;;;;;;;;;;;;7.42;100.00;101153.83;1731599;81;20242;-82
2021/12/16 04:27:03;;;;;;;;;;;;;;;7.45;100.00;101158.86;1730074;82;21106;-84
2021/12/16 04:29:29;;;;;;;;;;;;;;;7.40;100.00;101154.42;1731322;81;20452;-83
2021/12/16 04:31:55;;;;;;;;;;;;;;;7.31;100.00;101135.37;1729101;82;20181;-83
2021/12/16 04:34:21;;;;;;;;;;;;;;;7.48;100.00;101156.50;1726290;82;20252;-82
2021/12/16 04:36:47;;;;;;;;;;;;;;;7.47;100.00;101156.13;1727547;82;20726;-82
2021/12/16 04:39:16;;;;;;;;;;;;;;;7.44;100.00;101144.06;1723808;82;21025;-83
2021/12/16 04:41:42;;;;;;;;;;;;;;;7.49;100.00;101145.05;1727478;82;20700;-80
2021/12/16 04:44:10;;;;;;;;;;;;;;;7.39;100.00;101146.16;1732259;82;20204;-80
2021/12/16 04:46:37;;;;;;;;;;;;;;;7.49;100.00;101144.56;1731462;82;20195;-84
2021/12/16 04:49:03;;;;;;;;;;;;;;;7.45;100.00;101128.64;1708187;82;20191;-82
2021/12/16 04:51:30;;;;;;;;;;;;;;;7.50;100.00;101148.02;1707263;82;22563;-83
2021/12/16 04:53:58;;;;;;;;;;;;;;;7.47;100.00;101145.61;1729825;81;20150;-80
2021/12/16 04:56:28;;;;;;;;;;;;;;;7.40;100.00;101137.34;1730837;82;20262;-82
2021/12/16 04:58:54;;;;;;;;;;;;;;;7.34;100.00;101135.16;1725299;81;20264;-82
2021/12/16 05:01:21;;;;;;;;;;;;;;;7.42;100.00;101120.98;1705834;82;20360;-84
2021/12/16 05:03:48;;;;;;;;;;;;;;;7.45;100.00;101120.75;1725106;81;21953;-82
2021/12/16 05:06:15;;;;;;;;;;;;;;;7.40;100.00;101130.77;1729203;82;20131;-82
2021/12/16 05:08:43;;;;;;;;;;;;;;;7.44;100.00;101133.55;1730735;81;20212;-82
2021/12/16 05:11:11;;;;;;;;;;;;;;;7.37;100.00;101124.42;1732247;81;20223;-81
2021/12/16 05:13:37;;;;;;;;;;;;;;;7.45;100.00;101133.89;1726633;82;20220;-82
2021/12/16 05:16:08;;;;;;;;;;;;;;;7.45;100.00;101122.06;1710302;82;22331;-82
2021/12/16 05:18:36;;;;;;;;;;;;;;;7.26;100.00;101137.50;1732117;81;20095;-80
2021/12/16 05:21:06;;;;;;;;;;;;;;;7.30;100.00;101129.75;1727634;81;20232;-81
2021/12/16 05:26:20;;;;;;;;;;;;;;;7.33;100.00;101129.07;1729180;81;20193;-79
2021/12/16 05:28:56;;;;;;;;;;;;;;;7.26;100.00;101135.70;1736659;82;20127;-79
2021/12/16 05:31:23;;;;;;;;;;;;;;;7.30;100.00;101133.69;1728225;81;20209;-79
2021/12/16 05:33:51;;;;;;;;;;;;;;;7.26;100.00;101129.63;1728815;82;20211;-79
2021/12/16 05:36:18;;;;;;;;;;;;;;;7.24;100.00;101128.42;1728238;82;20492;-79
2021/12/16 05:38:44;;;;;;;;;;;;;;;7.30;100.00;101136.31;1729213;82;20628;-80
2021/12/16 05:41:12;;;;;;;;;;;;;;;7.32;100.00;101132.64;1732320;82;21110;-80
2021/12/16 05:43:39;;;;;;;;;;;;;;;7.33;100.00;101147.47;1701317;82;20513;-80
2021/12/16 05:46:06;;;;;;;;;;;;;;;7.21;100.00;101136.98;1730120;81;20226;-78
2021/12/16 05:48:33;;;;;;;;;;;;;;;7.24;100.00;101139.38;1726545;81;20263;-80
2021/12/16 05:51:06;;;;;;;;;;;;;;;7.27;100.00;101141.79;1732422;82;20158;-83
2021/12/16 05:53:32;;;;;;;;;;;;;;;7.22;100.00;101145.23;1726919;82;20138;-80
2021/12/16 05:55:57;;;;;;;;;;;;;;;7.24;100.00;101132.36;1722655;82;20324;-81
2021/12/16 05:58:24;;;;;;;;;;;;;;;7.24;100.00;101138.07;1705810;82;20179;-79
2021/12/16 06:00:52;;;;;;;;;;;;;;;7.22;100.00;101121.59;1708466;81;20316;-80
2021/12/16 06:03:18;;;;;;;;;;;;;;;7.11;100.00;101127.12;1729317;81;20505;-81
2021/12/16 06:05:44;;;;;;;;;;;;;;;7.12;100.00;101130.12;1725955;81;21004;-79
2021/12/16 06:08:10;;;;;;;;;;;;;;;7.06;100.00;101143.69;1732275;81;20287;-79
2021/12/16 06:13:05;;;;;;;;;;;;;;;7.06;100.00;101120.54;1724087;82;20199;-82
2021/12/16 06:26:43;;;;;;;;;;;;;;;7.06;100.00;101122.69;1740657;81;20123;-83
2021/12/16 06:28:59;;;;;;;;;;;;;;;7.05;100.00;101131.50;1734827;81;20126;-78
2021/12/16 06:31:26;;;;;;;;;;;;;;;7.11;100.00;101129.75;1742748;81;21169;-84
2021/12/16 06:33:52;;;;;;;;;;;;;;;7.09;100.00;101142.16;1739868;82;20258;-80
2021/12/16 06:36:18;;;;;;;;;;;;;;;7.08;100.00;101137.84;1740028;82;20148;-83
2021/12/16 06:38:44;;;;;;;;;;;;;;;7.03;100.00;101142.59;1739330;82;20194;-79
2021/12/16 06:41:10;;;;;;;;;;;;;;;7.00;100.00;101136.25;1740891;82;20213;-78
2021/12/16 06:43:38;;;;;;;;;;;;;;;7.05;100.00;101132.81;1736580;82;21008;-79
2021/12/16 06:46:07;;;;;;;;;;;;;;;7.07;100.00;101137.95;1730561;82;20110;-81
2021/12/16 06:48:34;;;;;;;;;;;;;;;7.10;100.00;101143.86;1739851;82;20331;-81
2021/12/16 06:51:03;;;;;;;;;;;;;;;7.06;100.00;101135.81;1735818;82;20107;-81
2021/12/16 06:53:46;;;;;;;;;;;;;;;7.04;100.00;101144.28;1738314;82;20192;-80
2021/12/16 06:56:13;;;;;;;;;;;;;;;7.06;100.00;101145.01;1735912;82;20162;-80
2021/12/16 06:58:44;;;;;;;;;;;;;;;7.10;100.00;101149.11;1739641;82;20865;-81
2021/12/16 07:01:14;;;;;;;;;;;;;;;7.10;100.00;101150.42;1743605;82;20095;-83
2021/12/16 07:03:47;;;;;;;;;;;;;;;7.17;100.00;101150.33;1730480;82;20193;-81
2021/12/16 07:06:16;;;;;;;;;;;;;;;7.13;100.00;101164.65;1733786;82;20207;-80
2021/12/16 07:08:41;;;;;;;;;;;;;;;7.17;100.00;101159.52;1739016;81;21142;-80
2021/12/16 07:11:11;;;;;;;;;;;;;;;7.19;100.00;101149.77;1740527;82;20129;-83
2021/12/16 07:13:41;;;;;;;;;;;;;;;7.16;100.00;101147.36;1733343;82;20130;-80
2021/12/16 07:16:05;;;;;;;;;;;;;;;7.14;100.00;101134.78;1736754;82;20158;-83
2021/12/16 07:18:31;;;;;;;;;;;;;;;7.19;100.00;101148.45;1740066;82;20278;-80
2021/12/16 07:20:56;;;;;;;;;;;;;;;7.23;100.00;101148.23;1737085;82;21065;-82
2021/12/16 07:23:24;;;;;;;;;;;;;;;7.19;100.00;101136.62;1737567;82;20780;-80
2021/12/16 07:25:49;;;;;;;;;;;;;;;7.15;100.00;101146.98;1738770;82;20138;-80
2021/12/16 07:28:15;;;;;;;;;;;;;;;7.15;100.00;101137.78;1732523;82;20164;-83
2021/12/16 07:30:42;;;;;;;;;;;;;;;7.19;100.00;101130.06;1732651;82;21113;-80
2021/12/16 07:33:09;;;;;;;;;;;;;;;7.26;100.00;101123.89;1739555;81;21069;-80
2021/12/16 07:35:36;;;;;;;;;;;;;;;7.26;100.00;101117.80;1738037;82;20203;-83
2021/12/16 07:38:01;;;;;;;;;;;;;;;7.26;100.00;101120.43;1715856;82;20527;-79
2021/12/16 07:40:27;;;;;;;;;;;;;;;7.17;100.00;101116.18;1737964;82;20170;-80
2021/12/16 07:45:34;;;;;;;;;;;;;;;7.15;100.00;101131.22;1737557;82;20121;-79
2021/12/16 07:48:02;;;;;;;;;;;;;;;7.14;100.00;101129.53;1736093;81;20996;-79
2021/12/16 07:50:28;;;;;;;;;;;;;;;7.17;100.00;101129.31;1735352;82;20166;-81
2021/12/16 07:52:53;;;;;;;;;;;;;;;7.17;100.00;101126.69;1738680;81;20173;-80
2021/12/16 07:55:22;;;;;;;;;;;;;;;7.25;100.00;101130.56;1733805;81;20147;-82
2021/12/16 07:57:51;;;;;;;;;;;;;;;7.20;100.00;101136.14;1741400;82;21156;-80
2021/12/16 08:00:22;;;;;;;;;;;;;;;7.24;100.00;101128.87;1742257;81;20653;-80
2021/12/16 08:02:48;;;;;;;;;;;;;;;7.24;100.00;101123.62;1740331;82;20676;-79
2021/12/16 08:05:15;;;;;;;;;;;;;;;7.28;100.00;101112.78;1737224;81;20124;-79
2021/12/16 08:07:43;;;;;;;;;;;;;;;7.26;100.00;101105.98;1737286;81;20201;-82
2021/12/16 08:10:16;;;;;;;;;;;;;;;7.15;100.00;101107.58;1740016;82;21156;-80
2021/12/16 08:12:44;;;;;;;;;;;;;;;7.15;100.00;101110.20;1738377;81;20170;-80
2021/12/16 08:15:10;;;;;;;;;;;;;;;7.10;100.00;101138.60;1737913;81;20445;-82
2021/12/16 08:17:36;;;;;;;;;;;;;;;7.15;100.00;101126.45;1737582;82;20272;-81
2021/12/16 08:20:04;;;;;;;;;;;;;;;7.24;100.00;101148.58;1737525;82;20267;-82
2021/12/16 08:22:30;;;;;;;;;;;;;;;7.17;100.00;101123.23;1741202;81;21118;-82
2021/12/16 08:24:55;;;;;;;;;;;;;;;7.22;100.00;101124.22;1739437;82;20646;-83
2021/12/16 08:27:21;;;;;;;;;;;;;;;7.22;100.00;101139.49;1736469;82;20321;-84
2021/12/16 08:29:47;;;;;;;;;;;;;;;7.19;100.00;101130.06;1737808;81;20121;-82
2021/12/16 08:32:12;;;;;;;;;;;;;;;7.22;100.00;101132.09;1740983;82;20127;-82
2021/12/16 08:34:42;;;;;;;;;;;;;;;7.12;100.00;101145.89;1738101;82;21111;-82
2021/12/16 08:37:07;;;;;;;;;;;;;;;7.12;100.00;101115.68;1737407;80;20122;-81
2021/12/16 08:39:33;;;;;;;;;;;;;;;7.08;100.00;101122.09;1739497;81;20181;-83
2021/12/16 08:42:06;;;;;;;;;;;;;;;7.06;100.00;101133.67;1737615;82;20213;-80
2021/12/16 08:44:33;;;;;;;;;;;;;;;7.05;100.00;101128.87;1732612;82;20184;-80
2021/12/16 08:47:03;;;;;;;;;;;;;;;7.06;100.00;101126.62;1737633;81;21177;-83
2021/12/16 08:49:32;;;;;;;;;;;;;;;7.01;100.00;101136.62;1710090;82;20177;-83
2021/12/16 08:52:04;;;;;;;;;;;;;;;6.91;100.00;101150.03;1738273;81;20195;-84
2021/12/16 08:54:31;;;;;;;;;;;;;;;6.93;100.00;101141.55;1734854;82;20239;-82
2021/12/16 08:56:59;;;;;;;;;;;;;;;6.97;100.00;101138.61;1736349;82;20464;-82
2021/12/16 08:59:26;;;;;;;;;;;;;;;7.00;100.00;101138.87;1736055;82;20721;-82
2021/12/16 09:01:57;;;;;;;;;;;;;;;6.88;100.00;101174.70;1731496;82;21034;-82
2021/12/16 09:04:23;;;;;;;;;;;;;;;6.98;100.00;101138.16;1738551;81;20259;-81
2021/12/16 09:06:50;;;;;;;;;;;;;;;6.98;100.00;101143.41;1738362;81;20219;-81
2021/12/16 09:09:19;;;;;;;;;;;;;;;7.03;100.00;101126.84;1741491;82;20198;-81
2021/12/16 09:12:02;;;;;;;;;;;;;;;7.04;100.00;101123.28;1731787;82;21999;-83
2021/12/16 09:14:12;;;;;;;;;;;;;;;7.04;100.00;101136.41;1732811;82;20159;-83
2021/12/16 09:16:41;;;;;;;;;;;;;;;7.07;100.00;101128.31;1736727;81;20098;-81
2021/12/16 09:19:07;;;;;;;;;;;;;;;7.05;100.00;101152.52;1736812;81;20260;-80
2021/12/16 09:21:34;;;;;;;;;;;;;;;7.10;100.00;101127.23;1734971;82;21145;-80
2021/12/16 09:23:59;;;;;;;;;;;;;;;7.08;100.00;101124.72;1710874;82;20952;-79
2021/12/16 09:26:25;;;;;;;;;;;;;;;7.01;100.00;101114.30;1740130;82;20495;-80
2021/12/16 09:28:51;;;;;;;;;;;;;;;7.00;100.00;101129.69;1739628;81;20216;-80
2021/12/16 09:31:18;;;;;;;;;;;;;;;7.08;100.00;101113.38;1736863;82;20147;-80
2021/12/16 09:33:47;;;;;;;;;;;;;;;6.99;100.00;101115.73;1733635;82;20256;-80
2021/12/16 09:36:13;;;;;;;;;;;;;;;6.98;100.00;101123.72;1731782;82;21199;-80
2021/12/16 09:38:41;;;;;;;;;;;;;;;7.11;100.00;101124.50;1735709;81;20149;-82
2021/12/16 09:41:07;;;;;;;;;;;;;;;7.17;100.00;101114.87;1737485;81;20133;-81
2021/12/16 09:43:36;;;;;;;;;;;;;;;7.19;100.00;101116.93;1735198;81;20158;-81
2021/12/16 09:46:04;;;;;;;;;;;;;;;7.21;100.00;101121.22;1737592;81;20215;-80
2021/12/16 09:48:31;;;;;;;;;;;;;;;7.26;100.00;101125.20;1735532;82;20685;-80
2021/12/16 09:50:57;;;;;;;;;;;;;;;7.32;100.00;101109.48;1733487;82;20116;-83
2021/12/16 09:53:23;;;;;;;;;;;;;;;7.33;100.00;101122.50;1736898;82;20177;-82
2021/12/16 09:55:57;;;;;;;;;;;;;;;7.41;100.00;101133.77;1737209;82;20382;-80
2021/12/16 09:58:18;;;;;;;;;;;;;;;7.35;100.00;101134.22;1739138;81;20190;-81
2021/12/16 10:00:46;;;;;;;;;;;;;;;7.42;100.00;101135.43;1735894;81;21985;-78
2021/12/16 10:03:12;;;;;;;;;;;;;;;7.47;100.00;101125.45;1741567;81;20133;-80
2021/12/16 10:05:37;;;;;;;;;;;;;;;7.43;100.00;101134.48;1734171;81;20173;-81
2021/12/16 10:08:04;;;;;;;;;;;;;;;7.37;100.00;101135.77;1738121;81;20853;-81
2021/12/16 10:10:32;;;;;;;;;;;;;;;7.40;100.00;101129.45;1740458;81;20214;-81
2021/12/16 10:13:00;;;;;;;;;;;;;;;7.42;100.00;101136.74;1738206;81;20970;-81
2021/12/16 10:18:06;;;;;;;;;;;;;;;7.53;100.00;101133.34;1742395;81;20118;-81
2021/12/16 10:20:47;;;;;;;;;;;;;;;7.53;100.00;101132.85;1736938;81;20106;-82
2021/12/16 10:23:16;;;;;;;;;;;;;;;7.48;100.00;101131.05;1744186;80;20544;-82
2021/12/16 10:25:48;;;;;;;;;;;;;;;7.47;100.00;101122.81;1745411;80;21962;-82
2021/12/16 10:28:23;;;;;;;;;;;;;;;7.41;100.00;101121.95;1743228;80;20152;-82
2021/12/16 10:30:52;;;;;;;;;;;;;;;7.50;100.00;101121.28;1746036;82;20206;-81
2021/12/16 10:33:29;;;;;;;;;;;;;;;7.55;100.00;101114.34;1732415;82;20482;-82
2021/12/16 10:36:07;;;;;;;;;;;;;;;7.53;100.00;101095.23;1745917;82;20626;-81
2021/12/16 10:38:48;;;;;;;;;;;;;;;7.47;100.00;101110.98;1736882;82;20502;-80
2021/12/16 10:41:36;;;;;;;;;;;;;;;7.49;100.00;101103.82;1741772;82;20149;-83
2021/12/16 10:44:24;;;;;;;;;;;;;;;7.51;100.00;101091.39;1714699;82;20121;-80
2021/12/16 10:46:54;;;;;;;;;;;;;;;7.48;100.00;101108.70;1712614;82;20508;-81
2021/12/16 10:49:25;;;;;;;;;;;;;;;7.46;100.00;101089.59;1712020;82;20107;-78
2021/12/16 10:52:00;;;;;;;;;;;;;;;7.57;100.00;101083.55;1705274;82;21295;-80
2021/12/16 10:54:30;;;;;;;;;;;;;;;7.48;100.00;101090.31;1716392;82;20125;-80
2021/12/16 10:57:04;;;;;;;;;;;;;;;7.57;100.00;101107.20;1712367;82;20236;-80
2021/12/16 10:59:41;;;;;;;;;;;;;;;7.59;100.00;101101.34;1707587;82;20180;-79
2021/12/16 11:02:09;;;;;;;;;;;;;;;7.59;100.00;101125.48;1710656;82;20172;-80
2021/12/16 11:04:40;;;;;;;;;;;;;;;7.57;100.00;101111.14;1708747;82;21194;-81
2021/12/16 11:07:33;;;;;;;;;;;;;;;7.62;100.00;101113.44;1707397;82;20165;-81
2021/12/16 11:10:19;;;;;;;;;;;;;;;7.58;100.00;101119.86;1710632;82;20177;-80
2021/12/16 11:12:51;;;;;;;;;;;;;;;7.66;100.00;101089.89;1718888;82;20197;-80
2021/12/16 11:15:39;;;;;;;;;;;;;;;7.64;100.00;101110.20;1721567;82;20229;-81
2021/12/16 11:18:17;;;;;;;;;;;;;;;7.70;100.00;101099.23;1713525;82;20711;-80
2021/12/16 11:20:58;;;;;;;;;;;;;;;7.70;100.00;101093.98;1708157;82;20190;-80
2021/12/16 11:23:30;;;;;;;;;;;;;;;7.60;100.00;101101.72;1707117;82;20229;-80
2021/12/16 11:25:59;;;;;;;;;;;;;;;7.63;100.00;101096.23;1713961;82;20188;-81
2021/12/16 11:28:31;;;;;;;;;;;;;;;7.79;100.00;101089.34;1711128;82;20194;-82
2021/12/16 11:31:02;;;;;;;;;;;;;;;7.87;100.00;101081.71;1705480;82;20991;-80
2021/12/16 11:33:34;;;;;;;;;;;;;;;7.82;100.00;101098.33;1713255;82;20434;-80
2021/12/16 11:36:09;;;;;;;;;;;;;;;7.74;100.00;101079.66;1690224;82;20228;-80
2021/12/16 11:38:50;;;;;;;;;;;;;;;7.77;100.00;101074.17;1690560;82;20177;-79
2021/12/16 11:41:28;;;;;;;;;;;;;;;7.83;100.00;101069.77;1704201;82;21091;-82
2021/12/16 11:43:57;;;;;;;;;;;;;;;7.77;100.00;101074.17;1743852;81;21107;-79
2021/12/16 11:46:35;;;;;;;;;;;;;;;7.77;100.00;101092.58;1742147;81;20607;-79
2021/12/16 11:49:06;;;;;;;;;;;;;;;7.81;100.00;101088.75;1735847;81;20155;-79
2021/12/16 11:51:41;;;;;;;;;;;;;;;7.85;100.00;101092.84;1735678;81;20178;-80
2021/12/16 11:54:23;;;;;;;;;;;;;;;7.82;100.00;101087.80;1740954;81;20216;-80
2021/12/16 11:56:55;;;;;;;;;;;;;;;7.88;100.00;101087.34;1729398;81;21116;-79
2021/12/16 11:59:27;;;;;;;;;;;;;;;7.89;100.00;101081.14;1740512;81;20185;-78
2021/12/16 12:01:52;;;;;;;;;;;;;;;7.84;100.00;101081.95;1706668;81;20504;-79
2021/12/16 12:04:22;;;;;;;;;;;;;;;7.82;100.00;101099.64;1742082;81;20456;-79
2021/12/16 12:06:51;;;;;;;;;;;;;;;7.88;100.00;101080.77;1750324;80;20636;-78
2021/12/16 12:09:18;;;;;;;;;;;;;;;7.96;100.00;101088.57;1749664;81;20132;-80
2021/12/16 12:11:46;;;;;;;;;;;;;;;7.98;100.00;101081.39;1744915;81;20233;-78
2021/12/16 12:14:17;;;;;;;;;;;;;;;8.00;100.00;101088.68;1744620;81;21053;-79
2021/12/16 12:16:45;;;;;;;;;;;;;;;7.99;100.00;101073.38;1741533;81;20252;-79
2021/12/16 12:19:22;;;;;;;;;;;;;;;7.96;100.00;101072.30;1742355;81;20490;-79
2021/12/16 12:22:00;;;;;;;;;;;;;;;8.05;100.00;101074.72;1742593;81;21563;-79
2021/12/16 12:24:31;;;;;;;;;;;;;;;8.02;100.00;101092.05;1743093;81;20278;-80
2021/12/16 12:26:57;;;;;;;;;;;;;;;8.01;100.00;101086.42;1722967;81;20161;-80
2021/12/16 12:29:28;;;;;;;;;;;;;;;7.99;100.00;101076.02;1743600;81;20268;-77
2021/12/16 12:32:16;;;;;;;;;;;;;;;7.90;100.00;101080.17;1744664;80;20108;-78
2021/12/16 12:34:45;;;;;;;;;;;;;;;8.06;100.00;101081.64;1735713;81;21089;-80
2021/12/16 12:37:13;;;;;;;;;;;;;;;8.05;100.00;101082.61;1714334;81;20178;-78
2021/12/16 12:39:42;;;;;;;;;;;;;;;7.99;100.00;101073.87;1748566;81;20131;-78
2021/12/16 12:42:08;;;;;;;;;;;;;;;8.03;100.00;101073.98;1736426;81;20179;-79
2021/12/16 12:44:35;;;;;;;;;;;;;;;7.97;100.00;101084.52;1715623;81;20225;-78
2021/12/16 12:47:04;;;;;;;;;;;;;;;8.01;100.00;101070.64;1744298;81;21101;-78
2021/12/16 12:49:31;;;;;;;;;;;;;;;8.04;100.00;101066.46;1746644;81;20132;-78
2021/12/16 12:52:10;;;;;;;;;;;;;;;8.03;100.00;101079.24;1742270;81;20235;-79
2021/12/16 12:54:36;;;;;;;;;;;;;;;8.08;100.00;101092.91;1743696;81;20175;-79
2021/12/16 12:57:11;;;;;;;;;;;;;;;7.99;100.00;101090.97;1740732;81;20171;-78
2021/12/16 12:59:38;;;;;;;;;;;;;;;8.14;100.00;101066.12;1744419;81;21309;-79
2021/12/16 13:02:12;;;;;;;;;;;;;;;7.96;100.00;101078.88;1737732;81;20127;-78
2021/12/16 13:04:56;;;;;;;;;;;;;;;8.15;100.00;101058.58;1743245;81;20124;-77
2021/12/16 13:07:43;;;;;;;;;;;;;;;8.09;100.00;101060.36;1711200;81;20793;-80
2021/12/16 13:10:14;;;;;;;;;;;;;;;8.15;100.00;101054.63;1747532;80;20147;-77
2021/12/16 13:12:51;;;;;;;;;;;;;;;8.07;100.00;101110.95;1738207;80;21087;-78
2021/12/16 13:15:29;;;;;;;;;;;;;;;8.00;100.00;101074.22;1736897;81;20170;-79
2021/12/16 13:23:30;;;;;;;;;;;;;;;8.08;100.00;101077.13;1718623;81;20159;-77
2021/12/16 13:28:50;;;;;;;;;;;;;;;8.12;100.00;101094.81;1737503;81;20083;-78
2021/12/16 13:31:35;;;;;;;;;;;;;;;8.06;100.00;101082.95;1745552;81;20473;-78
2021/12/16 13:34:00;;;;;;;;;;;;;;;8.02;100.00;101069.70;1748633;81;20107;-78
2021/12/16 13:36:46;;;;;;;;;;;;;;;8.00;100.00;101064.55;1736028;81;20186;-80
2021/12/16 13:39:16;;;;;;;;;;;;;;;8.08;100.00;101062.66;1754111;81;20473;-77
2021/12/16 13:42:02;;;;;;;;;;;;;;;8.05;100.00;101061.57;1740011;81;20237;-79
2021/12/16 13:44:50;;;;;;;;;;;;;;;7.97;100.00;101075.76;1745516;81;20150;-78
2021/12/16 14:01:56;;;;;;;;;;;;;;;8.03;100.00;101083.19;1731762;81;20143;-79
2021/12/16 14:04:38;;;;;;;;;;;;;;;7.89;100.00;101075.88;1739585;81;20489;-78
2021/12/16 14:07:00;;;;;;;;;;;;;;;7.91;100.00;101081.86;1735840;81;20172;-79
2021/12/16 14:09:23;;;;;;;;;;;;;;;7.89;100.00;101072.39;1721687;81;20199;-78
2021/12/16 14:12:58;;;;;;;;;;;;;;;7.96;100.00;101079.37;1734184;81;20147;-79
2021/12/16 14:23:17;;;;;;;;;;;;;;;7.84;100.00;101100.84;1738625;81;20154;-78
2021/12/16 14:31:37;;;;;;;;;;;;;;;7.99;100.00;101094.43;1737537;81;20179;-78
2021/12/16 14:43:34;;;;;;;;;;;;;;;7.96;100.00;101178.00;1733199;81;20225;-77
2021/12/16 14:47:09;;;;;;;;;;;;;;;7.99;99.81;101194.86;1743612;81;20099;-81
2021/12/16 14:49:34;;;;;;;;;;;;;;;7.99;99.45;101180.40;1739912;81;20158;-81
2021/12/16 14:52:04;;;;;;;;;;;;;;;7.95;98.57;101174.99;1747966;81;20130;-79
2021/12/16 14:54:34;;;;;;;;;;;;;;;7.90;98.81;101212.98;1735472;81;20639;-79
2021/12/16 14:56:58;;;;;;;;;;;;;;;7.83;97.73;101198.63;1740948;81;20171;-79
2021/12/16 14:59:23;;;;;;;;;;;;;;;7.91;97.84;101184.42;1729093;81;21068;-78
2021/12/16 15:01:50;;;;;;;;;;;;;;;7.98;97.99;101170.82;1719587;81;20308;-77
2021/12/16 15:04:22;;;;;;;;;;;;;;;7.96;98.15;101183.26;1739339;81;20187;-79
2021/12/16 15:06:58;;;;;;;;;;;;;;;8.00;98.20;101184.69;1741701;81;20247;-78
2021/12/16 15:09:27;;;;;;;;;;;;;;;8.08;98.08;101170.51;1737023;81;20508;-77
2021/12/16 15:12:00;;;;;;;;;;;;;;;8.05;98.09;101161.53;1746095;81;21038;-79
2021/12/16 15:14:46;;;;;;;;;;;;;;;8.00;98.47;101147.86;1738724;81;20096;-79
2021/12/16 15:17:08;;;;;;;;;;;;;;;7.95;98.67;101140.31;1737188;81;20162;-80
2021/12/16 15:36:52;;;;;;;;;;;;;;;7.78;96.96;101167.86;1739125;81;20167;-80
2021/12/16 15:39:44;;;;;;;;;;;;;;;7.83;96.30;101148.66;1738013;81;20142;-79
2021/12/16 15:44:50;;;;;;;;;;;;;;;7.73;94.26;101150.28;1735151;81;20131;-79
2021/12/16 15:47:16;;;;;;;;;;;;;;;7.81;94.49;101158.44;1746805;81;20289;-81
2021/12/16 15:49:42;;;;;;;;;;;;;;;7.80;95.50;101154.14;1742624;81;20213;-78
2021/12/16 15:52:08;;;;;;;;;;;;;;;7.74;95.56;101145.39;1743143;81;21174;-79
2021/12/16 15:54:36;;;;;;;;;;;;;;;7.81;96.00;101137.39;1737597;81;20335;-79
2021/12/16 15:57:03;;;;;;;;;;;;;;;7.79;95.73;101166.09;1750991;81;20182;-79
2021/12/16 15:59:31;;;;;;;;;;;;;;;7.71;96.07;101171.91;1742304;81;20316;-81
2021/12/16 16:01:58;;;;;;;;;;;;;;;7.61;95.52;101192.75;1734114;80;20198;-79
2021/12/16 16:04:29;;;;;;;;;;;;;;;7.61;94.31;101209.01;1737626;81;21193;-80
2021/12/16 16:07:02;;;;;;;;;;;;;;;7.63;92.38;101217.61;1742545;81;20198;-83
2021/12/16 16:09:31;;;;;;;;;;;;;;;7.44;91.14;101218.96;1739792;81;20265;-80
2021/12/16 16:11:57;;;;;;;;;;;;;;;7.51;90.66;101221.50;1720822;81;20283;-82
2021/12/16 16:14:23;;;;;;;;;;;;;;;7.43;91.15;101200.19;1739776;81;21043;-80
2021/12/16 16:16:53;;;;;;;;;;;;;;;7.61;90.63;101207.70;1731282;81;21085;-79
2021/12/16 16:19:24;;;;;;;;;;;;;;;7.64;90.76;101204.84;1748024;81;20154;-82
2021/12/16 16:21:53;;;;;;;;;;;;;;;7.51;89.86;101226.75;1737446;81;20139;-80